Terminal Aerodrome Forecast
Issued by NWS Spokane, WA

Home | Current Version | Previous Version | Text Only | Print | Product List | Glossary On
Versions: 1 2 3 4 5 6 7 8 9 10 11 12 13 14 15 16 17 18 19 20 21 22 23 24 25 26 27 28 29 30 31 32 33 34
000
FTUS46 KOTX 282347 CCA
TAFGEG
TAF COR
KGEG 282347Z 2900/2924 18009KT P6SM VCSH SCT090 BKN110 BKN250
     FM290500 07007KT 5SM FU HZ BKN120 OVC150
     FM291200 07008KT 5SM FU HZ BKN120 OVC150 WS019/19042KT
     FM291500 17013G23KT 6SM FU HZ BKN150 OVC200
     FM291700 21024G39KT 3SM BLDU SCT050 BKN100 BKN250
     FM292300 23020G30KT 3SM BLDU SCT100 BKN200=

USA.gov is the U.S. government's official web portal to all federal, state and local government web resources and services.